Hlavní strana
METAR-TAF:

METAR-TAF

Letiště :

Williamson County Regional Airport

Marion, Illinois, Spojené státy americké

zeměpisná šířka: 37-45-01N, zeměpisná délka: 089-00-04W, výška: 144 m

Aktuální stav počasí

Zpráva byla vytvořena před 15 minutami, v 03:35 UTC
Bezvětří
Teplota 21°C
Vlhkost vzduchu 100%
Tlak 1018 hPa
Viditelnost: 16.1 km
Jasno

METAR: KMWA 270335Z AUTO 00000KT 10SM CLR 21/21 A3005 RMK AO2 T02100206

Čas: 22:50 (03:50 UTC)


TAF: chybějící

Stav a předpovědi počasí z více než 4 000 letišť (zprávy METAR a TAF).

Červené a žluté tečky na mapě představují dostupné meteorologické stanice.

Když kurzor umístíte na tečku, zobrazí se název stanice.

Pak kliknutím zobrazíte stav a předpověď počasí.

Chcete-li změnit mapu, kliknutím na zelené tlačítko se znaménkem +mapu přiblížíte, kliknutím na zelené tlačítko se znaménkem – mapu oddálíte a kliknutím na zelené šipky přejdete na sousední mapy.


METAR-TAF: